createdAt,value
2023-02-16T07:59:00.543Z,100.00
2023-02-16T08:01:32.118Z,100.00
2023-02-16T08:03:59.498Z,100.00
2023-02-16T08:06:27.083Z,100.00
2023-02-16T08:08:54.346Z,100.00
2023-02-16T08:11:25.326Z,100.00
2023-02-16T08:13:53.116Z,100.00
2023-02-16T08:16:28.902Z,100.00
2023-02-16T08:19:00.213Z,100.00
2023-02-16T08:21:34.483Z,100.00
2023-02-16T08:24:13.174Z,100.00
2023-02-16T08:26:44.706Z,100.00
2023-02-16T08:29:14.916Z,100.00
2023-02-16T08:31:42.635Z,100.00
2023-02-16T08:34:10.711Z,100.00
2023-02-16T08:36:40.182Z,100.00
2023-02-16T08:39:19.007Z,100.00
2023-02-16T08:41:49.877Z,100.00
2023-02-16T08:44:20.345Z,100.00
2023-02-16T08:46:49.516Z,100.00
2023-02-16T08:49:21.924Z,100.00
2023-02-16T08:51:56.905Z,100.00
2023-02-16T08:54:30.487Z,100.00
2023-02-16T08:57:00.015Z,100.00
2023-02-16T08:59:28.838Z,100.00
2023-02-16T09:01:59.125Z,100.00
2023-02-16T09:04:29.270Z,100.00
2023-02-16T09:06:58.563Z,100.00
2023-02-16T09:09:27.402Z,100.00
2023-02-16T09:11:55.185Z,100.00
2023-02-16T09:14:23.114Z,100.00
2023-02-16T09:16:50.605Z,100.00
2023-02-16T09:19:21.757Z,100.00
2023-02-16T09:21:50.964Z,100.00
2023-02-16T09:24:19.102Z,100.00
2023-02-16T09:26:46.594Z,100.00
2023-02-16T09:29:14.834Z,100.00
2023-02-16T09:31:44.267Z,100.00
2023-02-16T09:34:22.607Z,100.00
2023-02-16T09:36:51.016Z,100.00
2023-02-16T09:39:19.150Z,100.00
2023-02-16T09:42:54.088Z,98.51
2023-02-16T09:45:22.849Z,95.84
2023-02-16T09:47:52.148Z,96.06
2023-02-16T09:50:53.824Z,95.00
2023-02-16T09:53:34.853Z,91.28
2023-02-16T09:56:37.806Z,90.48
2023-02-16T10:00:08.498Z,87.43
2023-02-16T10:03:12.207Z,85.38
2023-02-16T10:06:34.377Z,82.61
2023-02-16T10:09:16.479Z,80.46
2023-02-16T10:12:02.262Z,77.34
2023-02-16T10:14:51.225Z,73.84
2023-02-16T10:17:38.433Z,72.52
2023-02-16T10:20:35.973Z,74.79
2023-02-16T10:23:50.387Z,73.54
2023-02-16T10:26:44.173Z,71.76
2023-02-16T10:29:20.697Z,69.83
2023-02-16T10:32:20.807Z,69.28
2023-02-16T10:35:10.905Z,68.75
2023-02-16T10:37:54.697Z,66.40
2023-02-16T10:41:27.992Z,65.18
2023-02-16T10:44:43.836Z,63.97
2023-02-16T10:47:45.907Z,62.87
2023-02-16T10:50:52.133Z,61.65
2023-02-16T10:53:39.186Z,60.59
2023-02-16T10:57:01.040Z,60.38
2023-02-16T10:59:44.553Z,59.71
2023-02-16T11:02:23.686Z,59.29
2023-02-16T11:04:55.940Z,58.10
2023-02-16T11:07:31.313Z,58.27
2023-02-16T11:10:18.181Z,57.48
2023-02-16T11:12:45.519Z,57.12
2023-02-16T11:15:18.942Z,56.85
2023-02-16T11:18:08.674Z,55.01
2023-02-16T11:20:42.226Z,55.06
2023-02-16T11:23:31.808Z,54.19
2023-02-16T11:26:10.525Z,53.38
2023-02-16T11:28:46.647Z,52.79
2023-02-16T11:31:40.297Z,53.06
2023-02-16T11:34:51.175Z,51.65
2023-02-16T11:37:34.104Z,51.01
2023-02-16T11:40:31.012Z,49.89
2023-02-16T11:43:02.035Z,50.14
2023-02-16T11:45:36.806Z,49.46
2023-02-16T11:48:24.765Z,48.72
2023-02-16T11:51:10.667Z,48.81
2023-02-16T11:53:42.624Z,48.94
2023-02-16T11:56:33.023Z,47.58
2023-02-16T11:59:21.177Z,46.79
2023-02-16T12:02:49.035Z,47.16
2023-02-16T12:06:22.203Z,46.72
2023-02-16T12:09:14.144Z,46.00
2023-02-16T12:12:14.723Z,45.00
2023-02-16T12:15:24.889Z,42.09
2023-02-16T12:18:58.416Z,41.16
2023-02-16T12:21:42.389Z,40.53
2023-02-16T12:24:41.277Z,40.24
2023-02-16T12:27:43.174Z,39.48
2023-02-16T12:31:27.516Z,39.83
2023-02-16T12:34:37.714Z,38.92
2023-02-16T12:37:17.352Z,39.26
2023-02-16T12:40:15.161Z,39.49
2023-02-16T12:43:04.102Z,39.82
2023-02-16T12:45:42.289Z,38.56
2023-02-16T12:48:57.451Z,37.34
2023-02-16T12:51:38.251Z,38.35
2023-02-16T12:54:22.419Z,38.37
2023-02-16T12:57:15.858Z,37.32
2023-02-16T13:00:15.038Z,37.83
2023-02-16T13:03:15.500Z,37.88
2023-02-16T13:05:45.978Z,37.42
2023-02-16T13:09:13.905Z,37.75
2023-02-16T13:12:39.351Z,38.90
2023-02-16T13:15:37.181Z,38.94
2023-02-16T13:18:48.960Z,39.20
2023-02-16T13:22:18.325Z,38.27
2023-02-16T13:25:09.924Z,38.76
2023-02-16T13:28:52.657Z,39.87
2023-02-16T13:32:08.910Z,39.98
2023-02-16T13:36:19.588Z,39.76
2023-02-16T13:39:48.843Z,39.47
2023-02-16T13:42:45.155Z,39.87
2023-02-16T13:45:37.084Z,39.34
2023-02-16T13:48:46.380Z,39.42
2023-02-16T13:51:23.696Z,40.45
2023-02-16T13:54:03.908Z,39.93
2023-02-16T13:56:30.990Z,39.67
2023-02-16T13:59:18.580Z,40.47
2023-02-16T14:01:49.332Z,41.04
2023-02-16T14:04:22.547Z,40.70
2023-02-16T14:07:32.142Z,40.35
2023-02-16T14:09:59.543Z,40.64
2023-02-16T14:12:33.829Z,40.19
2023-02-16T14:15:19.311Z,40.17
2023-02-16T14:17:47.304Z,40.78
2023-02-16T14:20:15.768Z,41.42
2023-02-16T14:22:50.818Z,41.13
2023-02-16T14:25:23.975Z,40.98
2023-02-16T14:27:58.578Z,40.64
2023-02-16T14:30:42.531Z,41.58
2023-02-16T14:33:12.732Z,41.69
2023-02-16T14:36:14.281Z,41.54
2023-02-16T14:38:41.461Z,41.09
2023-02-16T14:41:36.811Z,41.97
2023-02-16T14:44:06.926Z,41.78
2023-02-16T14:47:52.819Z,42.17
2023-02-16T14:51:19.463Z,42.37
2023-02-16T14:54:48.517Z,42.08
2023-02-16T14:57:41.304Z,42.79
2023-02-16T15:01:08.648Z,42.94
2023-02-16T15:03:52.747Z,42.93
2023-02-16T15:06:43.061Z,43.40
2023-02-16T15:09:24.618Z,43.60
2023-02-16T15:12:22.878Z,43.42
2023-02-16T15:15:04.681Z,43.43
2023-02-16T15:17:47.163Z,43.16
2023-02-16T15:20:34.915Z,43.21
2023-02-16T15:23:17.653Z,43.52
2023-02-16T15:26:19.941Z,43.64
2023-02-16T15:29:18.657Z,44.00
2023-02-16T15:31:46.686Z,43.72
2023-02-16T15:34:36.185Z,44.33
2023-02-16T15:37:32.874Z,44.18
2023-02-16T15:40:29.789Z,44.73
2023-02-16T15:43:37.512Z,44.61
2023-02-16T15:46:33.090Z,44.54
2023-02-16T15:49:22.289Z,44.67
2023-02-16T15:51:49.933Z,45.07
2023-02-16T15:54:35.642Z,44.41
2023-02-16T15:57:30.885Z,45.17
2023-02-16T16:00:20.869Z,45.01
2023-02-16T16:02:58.354Z,44.99
2023-02-16T16:05:33.103Z,44.52
2023-02-16T16:08:01.716Z,45.07
2023-02-16T16:10:36.881Z,44.33
2023-02-16T16:13:28.726Z,44.49
2023-02-16T16:16:02.140Z,44.54
2023-02-16T16:18:51.068Z,44.56
2023-02-16T16:21:34.182Z,44.63
2023-02-16T16:24:11.743Z,44.70
2023-02-16T16:26:57.829Z,44.68
2023-02-16T16:29:46.789Z,45.04
2023-02-16T16:32:30.179Z,45.22
2023-02-16T16:34:57.805Z,45.22
2023-02-16T16:37:35.853Z,44.96
2023-02-16T16:40:27.693Z,44.94
2023-02-16T16:43:18.350Z,44.45
2023-02-16T16:45:54.054Z,44.61
2023-02-16T16:48:37.193Z,44.33
2023-02-16T16:51:38.235Z,44.58
2023-02-16T16:54:39.845Z,44.45
2023-02-16T16:57:18.482Z,44.13
2023-02-16T16:59:45.776Z,44.15
2023-02-16T17:02:13.189Z,44.25
2023-02-16T17:04:40.464Z,43.92
2023-02-16T17:07:07.919Z,44.22
2023-02-16T17:09:35.265Z,44.90
2023-02-16T17:12:03.392Z,45.08
2023-02-16T17:14:30.722Z,45.26
2023-02-16T17:16:58.451Z,45.68
2023-02-16T17:19:29.354Z,45.46
2023-02-16T17:21:56.763Z,45.57
2023-02-16T17:24:24.159Z,46.17
2023-02-16T17:26:51.514Z,46.37
2023-02-16T17:29:18.899Z,46.62
2023-02-16T17:31:46.287Z,46.61
2023-02-16T17:34:13.697Z,46.81
2023-02-16T17:36:41.168Z,47.10
2023-02-16T17:39:08.501Z,47.53
2023-02-16T17:41:35.788Z,47.47
2023-02-16T17:44:04.186Z,48.02
2023-02-16T17:46:32.588Z,48.75
2023-02-16T17:48:59.898Z,49.24
2023-02-16T17:51:27.374Z,49.00
2023-02-16T17:53:54.775Z,49.08
2023-02-16T17:56:24.692Z,49.65
2023-02-16T17:58:52.323Z,49.42
2023-02-16T18:01:21.345Z,50.37
2023-02-16T18:03:48.990Z,50.67
2023-02-16T18:06:25.047Z,50.19
2023-02-16T18:08:53.377Z,51.21
2023-02-16T18:11:20.679Z,51.30
2023-02-16T18:13:48.337Z,51.39
2023-02-16T18:16:21.757Z,51.84
2023-02-16T18:18:49.154Z,51.82
2023-02-16T18:21:16.532Z,52.52
2023-02-16T18:23:43.891Z,53.18
2023-02-16T18:26:16.517Z,53.07
2023-02-16T18:28:44.723Z,53.36
2023-02-16T18:31:13.061Z,54.62
2023-02-16T18:33:40.562Z,54.84
2023-02-16T18:36:08.987Z,55.15
2023-02-16T18:38:36.542Z,55.18
2023-02-16T18:41:04.735Z,55.63
2023-02-16T18:43:32.108Z,55.48
2023-02-16T18:45:59.587Z,55.78
2023-02-16T18:48:26.935Z,55.27
2023-02-16T18:50:54.241Z,55.29
2023-02-16T18:53:21.546Z,55.90
2023-02-16T18:55:48.873Z,56.36
2023-02-16T18:58:16.393Z,55.71
2023-02-16T19:00:44.099Z,56.38
2023-02-16T19:03:11.577Z,56.98
2023-02-16T19:05:38.883Z,57.28
2023-02-16T19:08:06.707Z,57.69
2023-02-16T19:10:34.255Z,56.83
2023-02-16T19:13:02.243Z,57.51
2023-02-16T19:15:30.087Z,57.90
2023-02-16T19:17:57.786Z,57.98
2023-02-16T19:20:25.620Z,58.21
2023-02-16T19:22:53.166Z,57.24
2023-02-16T19:25:21.274Z,56.95
2023-02-16T19:27:48.822Z,57.47
2023-02-16T19:30:16.424Z,57.66
2023-02-16T19:32:43.860Z,58.75
2023-02-16T19:35:12.431Z,58.38
2023-02-16T19:37:39.931Z,58.47
2023-02-16T19:40:11.104Z,59.46
2023-02-16T19:42:39.894Z,59.21
2023-02-16T19:45:08.644Z,59.03
2023-02-16T19:47:35.951Z,59.70
2023-02-16T19:50:04.067Z,59.28
2023-02-16T19:52:31.483Z,60.76
2023-02-16T19:54:58.803Z,60.34
2023-02-16T19:57:26.165Z,61.67
2023-02-16T19:59:53.470Z,61.68
2023-02-16T20:02:20.855Z,61.73
2023-02-16T20:04:48.215Z,61.44
2023-02-16T20:07:15.576Z,61.88
2023-02-16T20:09:42.888Z,62.21
2023-02-16T20:12:10.261Z,62.43
2023-02-16T20:14:37.554Z,62.45
2023-02-16T20:17:05.075Z,62.73
2023-02-16T20:19:32.390Z,63.38
2023-02-16T20:21:59.728Z,63.18
2023-02-16T20:24:27.066Z,64.26
2023-02-16T20:26:54.471Z,64.60
2023-02-16T20:29:22.094Z,64.94
2023-02-16T20:31:57.940Z,65.23
2023-02-16T20:34:27.579Z,65.74
2023-02-16T20:36:55.210Z,66.41
2023-02-16T20:39:23.571Z,65.37
2023-02-16T20:41:51.010Z,65.51
2023-02-16T20:44:18.386Z,65.64
2023-02-16T20:46:45.913Z,65.07
2023-02-16T20:49:13.589Z,64.33
2023-02-16T20:51:41.354Z,64.43
2023-02-16T20:54:09.428Z,64.25
2023-02-16T20:56:36.744Z,63.82
2023-02-16T20:59:05.118Z,64.41
2023-02-16T21:01:46.533Z,64.22
2023-02-16T21:04:18.861Z,64.45
2023-02-16T21:06:46.994Z,64.50
2023-02-16T21:09:15.845Z,63.91
2023-02-16T21:11:43.949Z,63.44
2023-02-16T21:14:13.058Z,64.19
2023-02-16T21:16:41.118Z,64.18
2023-02-16T21:19:21.006Z,64.58
2023-02-16T21:21:50.009Z,65.11
2023-02-16T21:24:17.451Z,65.74
2023-02-16T21:26:44.922Z,65.65
2023-02-16T21:29:12.694Z,65.86
2023-02-16T21:31:40.187Z,66.69
2023-02-16T21:34:07.549Z,66.64
2023-02-16T21:36:34.905Z,66.86
2023-02-16T21:39:02.989Z,66.32
2023-02-16T21:41:30.686Z,66.37
2023-02-16T21:44:13.653Z,65.72
2023-02-16T21:46:47.716Z,65.84
2023-02-16T21:49:20.190Z,66.36
2023-02-16T21:51:49.024Z,65.87
2023-02-16T21:54:42.218Z,66.05
2023-02-16T21:57:09.529Z,66.73
2023-02-16T21:59:37.137Z,66.58
2023-02-16T22:02:04.502Z,67.81
2023-02-16T22:04:31.811Z,66.92
2023-02-16T22:06:59.095Z,67.80
2023-02-16T22:09:26.415Z,67.38
2023-02-16T22:11:53.775Z,67.43
2023-02-16T22:14:21.090Z,67.88
2023-02-16T22:16:50.726Z,68.04
2023-02-16T22:19:18.903Z,68.93
2023-02-16T22:21:48.259Z,69.04
2023-02-16T22:24:18.503Z,69.57
2023-02-16T22:26:49.234Z,70.10
2023-02-16T22:29:17.564Z,70.00
2023-02-16T22:31:50.240Z,70.63
2023-02-16T22:34:23.986Z,71.40
2023-02-16T22:36:51.698Z,71.25
2023-02-16T22:39:20.361Z,71.71
2023-02-16T22:41:51.289Z,72.08
2023-02-16T22:44:18.656Z,71.96
2023-02-16T22:46:45.978Z,72.39
2023-02-16T22:49:13.284Z,71.71
2023-02-16T22:51:40.613Z,72.83
2023-02-16T22:54:08.477Z,72.34
2023-02-16T22:56:36.076Z,71.86
2023-02-16T22:59:03.592Z,73.11
2023-02-16T23:01:31.574Z,74.17
2023-02-16T23:04:01.485Z,74.71
2023-02-16T23:06:38.162Z,74.19
2023-02-16T23:09:15.628Z,73.10
2023-02-16T23:11:43.012Z,73.16
2023-02-16T23:14:16.517Z,73.17
2023-02-16T23:16:54.781Z,73.64
2023-02-16T23:19:26.849Z,74.14
2023-02-16T23:21:54.976Z,73.48
2023-02-16T23:24:24.068Z,73.23
2023-02-16T23:26:52.692Z,72.97
2023-02-16T23:29:20.686Z,73.28
2023-02-16T23:31:49.098Z,73.91
